Аэропорт: Адлер. Сочи

ICAO: URSS

METAR:
2018/07/16 19:30
URSS 161930Z 05003MPS 9999 SCT110 20/18 Q1008 R02/090070 R06/090070 NOSIG RMK R06/07004MPS QFE755
METAR:
2018/07/16 18:21
TAF URSS 161655Z 1618/1718 06005MPS 9999 SCT030CB BKN100 
      TEMPO 1618/1706 VRB07G12MPS 1000 TSRA BKN006 BKN030CB OVC100 
     FM170600 15006G11MPS 9999 SCT030CB BKN100 
      TEMPO 1706/1717 VRB07G12MPS -TSRA 
      BECMG 1717/1718 06005MPS